Terminal Aerodrome Forecast
Issued by NWS Riverton, WY

Home | Current Version | Previous Version | Text Only | Print | Product List | Glossary On
Versions: 1 2 3 4 5 6 7 8 9 10 11 12 13
000
FTUS45 KRIW 061124
TAFRIW
TAF
KRIW 061124Z 0612/0712 VRB05KT P6SM VCSH SCT014 OVC024
      TEMPO 0612/0615 5SM BR BKN014
     FM061800 07008KT P6SM VCSH SCT025 BKN045
     FM070600 VRB05KT P6SM VCFG FEW005 SCT040 BKN100=

USA.gov is the U.S. government's official web portal to all federal, state and local government web resources and services.